Time;durP1;ratioP1;P1;durP2;ratioP2;P2;SDS_P1;SDS_P2;PMS_P1;PMS_P2;Temp;Humidity;BMP_temperature;BMP_pressure;BME280_temperature;BME280_humidity;BME280_pressure;Samples;Min_cycle;Max_cycle;Signal;HPM_P1;HPM_P2
2022/12/05 00:02:06;;;;;;;33.42;19.05;;;4.60;99.90;;;;;;5075675;27;20059;-82
2022/12/05 00:04:31;;;;;;;38.08;19.90;;;4.60;99.90;;;;;;5097096;27;20039;-82
2022/12/05 00:06:57;;;;;;;41.28;19.98;;;4.60;99.90;;;;;;5101608;27;20080;-83
2022/12/05 00:09:23;;;;;;;40.40;20.33;;;4.60;99.90;;;;;;5097805;27;20043;-81
2022/12/05 00:11:48;;;;;;;38.80;19.20;;;4.70;99.90;;;;;;5105563;27;20054;-82
2022/12/05 00:14:14;;;;;;;36.40;19.60;;;4.70;99.90;;;;;;5077891;27;20039;-81
2022/12/05 00:16:41;;;;;;;36.75;19.42;;;4.60;99.90;;;;;;5101445;27;20039;-82
2022/12/05 00:19:13;;;;;;;38.42;19.88;;;4.70;99.90;;;;;;5076979;28;20048;-82
2022/12/05 00:21:39;;;;;;;39.10;19.67;;;4.60;99.90;;;;;;5105512;27;20099;-83
2022/12/05 00:24:07;;;;;;;36.28;17.65;;;4.60;99.90;;;;;;5077695;27;20071;-82
2022/12/05 00:26:33;;;;;;;36.22;19.63;;;4.60;99.90;;;;;;5095226;27;20047;-82
2022/12/05 00:28:59;;;;;;;34.30;18.85;;;4.60;99.90;;;;;;5079319;28;20127;-83
2022/12/05 00:31:26;;;;;;;35.63;19.40;;;4.60;99.90;;;;;;5079472;27;20130;-82
2022/12/05 00:33:53;;;;;;;34.97;19.10;;;4.60;99.90;;;;;;5111695;27;20568;-83
2022/12/05 00:36:25;;;;;;;34.97;18.52;;;4.70;99.90;;;;;;5089147;28;20424;-82
2022/12/05 00:38:52;;;;;;;34.20;17.95;;;4.60;99.90;;;;;;5082937;27;20062;-82
2022/12/05 00:41:23;;;;;;;36.03;19.55;;;4.70;99.90;;;;;;5093969;27;20047;-83
2022/12/05 00:43:50;;;;;;;34.20;18.25;;;4.60;99.90;;;;;;5110391;27;20073;-82
2022/12/05 00:46:24;;;;;;;37.33;18.85;;;4.70;99.90;;;;;;5097090;27;20398;-82
2022/12/05 00:48:52;;;;;;;35.67;18.90;;;4.70;99.90;;;;;;5095479;27;20043;-82
2022/12/05 00:51:21;;;;;;;40.22;21.17;;;4.70;99.90;;;;;;5110890;28;20050;-82
2022/12/05 00:53:48;;;;;;;36.97;18.40;;;4.70;99.90;;;;;;5094404;28;20039;-82
2022/12/05 00:56:17;;;;;;;36.50;19.08;;;4.80;99.90;;;;;;5100307;27;20043;-82
2022/12/05 00:58:43;;;;;;;35.65;19.95;;;4.80;99.90;;;;;;5086456;27;20039;-82
2022/12/05 01:01:10;;;;;;;38.70;19.67;;;4.80;99.90;;;;;;5086535;28;20039;-82
2022/12/05 01:03:37;;;;;;;39.67;20.13;;;4.80;99.90;;;;;;5103193;27;20121;-82
2022/12/05 01:06:04;;;;;;;35.80;20.48;;;4.80;99.90;;;;;;5079086;28;20050;-82
2022/12/05 01:08:32;;;;;;;39.85;20.42;;;4.90;99.90;;;;;;5113575;27;20123;-82
2022/12/05 01:10:58;;;;;;;36.85;19.70;;;4.80;99.90;;;;;;5088391;28;20074;-82
2022/12/05 01:13:26;;;;;;;38.45;19.48;;;5.00;99.90;;;;;;5107373;28;20838;-81
2022/12/05 01:15:52;;;;;;;38.38;19.40;;;4.90;99.90;;;;;;5076163;28;20405;-83
2022/12/05 01:18:18;;;;;;;39.08;20.75;;;4.90;99.90;;;;;;5104281;27;20066;-82
2022/12/05 01:20:45;;;;;;;47.25;22.15;;;4.90;99.90;;;;;;5107671;27;20043;-82
2022/12/05 01:23:11;;;;;;;49.30;23.25;;;5.00;99.90;;;;;;5081612;27;20112;-83
2022/12/05 01:25:45;;;;;;;48.17;23.63;;;5.00;99.90;;;;;;5109608;27;20093;-82
2022/12/05 01:28:11;;;;;;;47.67;23.75;;;5.00;99.90;;;;;;5140273;27;20039;-82
2022/12/05 01:30:39;;;;;;;46.30;22.17;;;5.00;99.90;;;;;;5087190;27;20039;-81
2022/12/05 01:33:05;;;;;;;46.97;23.00;;;5.00;99.90;;;;;;5100297;27;20404;-80
2022/12/05 01:35:32;;;;;;;46.47;22.48;;;5.00;1.00;;;;;;5091163;27;20074;-82
2022/12/05 01:37:58;;;;;;;47.45;23.00;;;5.10;1.00;;;;;;5114095;27;20090;-82
2022/12/05 01:40:23;;;;;;;46.42;23.35;;;5.10;1.00;;;;;;5062119;27;20078;-82
2022/12/05 01:42:49;;;;;;;44.55;22.55;;;5.10;1.00;;;;;;5100108;27;20035;-82
2022/12/05 01:45:30;;;;;;;46.25;22.30;;;5.10;1.00;;;;;;5073640;27;20040;-82
2022/12/05 01:47:56;;;;;;;45.90;21.90;;;5.10;1.00;;;;;;5116059;27;20043;-83
2022/12/05 01:50:22;;;;;;;47.08;23.40;;;5.10;1.00;;;;;;5105195;27;20039;-82
2022/12/05 01:52:48;;;;;;;48.83;23.70;;;5.10;1.00;;;;;;5108822;27;20043;-82
2022/12/05 01:55:16;;;;;;;50.60;23.98;;;5.10;1.00;;;;;;5113980;27;20043;-82
2022/12/05 01:57:44;;;;;;;48.35;22.40;;;5.20;1.00;;;;;;5116029;27;20092;-81
2022/12/05 02:00:17;;;;;;;50.28;24.15;;;5.10;1.00;;;;;;5093466;28;20526;-82
2022/12/05 02:03:12;;;;;;;49.80;23.38;;;5.10;1.00;;;;;;5096162;27;20051;-82
2022/12/05 02:05:38;;;;;;;49.97;24.27;;;5.20;1.00;;;;;;5094251;27;20082;-82
2022/12/05 02:08:07;;;;;;;50.20;24.08;;;5.20;1.00;;;;;;5095889;27;20074;-82
2022/12/05 02:10:40;;;;;;;46.75;23.92;;;5.20;1.00;;;;;;5096917;27;20059;-82
2022/12/05 02:13:46;;;;;;;48.28;23.92;;;5.10;1.00;;;;;;5100081;27;20039;-82
2022/12/05 02:16:47;;;;;;;52.72;24.27;;;5.20;1.00;;;;;;5114457;27;20058;-82
2022/12/05 02:19:38;;;;;;;51.78;24.83;;;5.20;1.00;;;;;;5104887;27;20047;-83
2022/12/05 02:22:09;;;;;;;52.83;24.65;;;5.10;1.00;;;;;;5126092;27;20081;-82
2022/12/05 02:24:35;;;;;;;54.15;24.70;;;5.10;1.00;;;;;;5089094;28;20039;-82
2022/12/05 02:27:00;;;;;;;56.28;24.20;;;5.10;1.00;;;;;;5111317;27;20043;-81
2022/12/05 02:29:52;;;;;;;52.97;25.25;;;5.10;1.00;;;;;;5117815;27;20053;-82
2022/12/05 02:32:35;;;;;;;53.25;24.33;;;5.00;1.00;;;;;;5114112;27;20039;-81
2022/12/05 02:35:42;;;;;;;55.55;24.50;;;5.10;1.00;;;;;;5113791;27;20043;-82
2022/12/05 02:38:08;;;;;;;55.60;24.40;;;5.00;1.00;;;;;;5091225;27;20455;-82
2022/12/05 02:40:49;;;;;;;50.15;23.52;;;5.00;1.00;;;;;;5089775;28;20146;-82
2022/12/05 02:43:21;;;;;;;53.38;24.20;;;5.00;1.00;;;;;;5095133;27;20035;-81
2022/12/05 02:45:50;;;;;;;57.30;24.85;;;5.00;1.00;;;;;;5110563;28;20055;-82
2022/12/05 02:48:18;;;;;;;55.70;24.45;;;5.00;1.00;;;;;;5112316;27;20046;-82
2022/12/05 02:50:47;;;;;;;52.92;23.70;;;5.00;1.00;;;;;;5098080;27;20043;-82
2022/12/05 02:53:16;;;;;;;59.13;24.60;;;5.00;1.00;;;;;;5091653;27;20078;-82
2022/12/05 02:55:43;;;;;;;55.65;24.90;;;5.00;1.00;;;;;;5118346;27;20046;-82
2022/12/05 02:58:23;;;;;;;58.17;24.92;;;5.00;1.00;;;;;;5081558;27;20047;-81
2022/12/05 03:00:53;;;;;;;58.95;24.63;;;5.00;1.00;;;;;;5112391;27;20092;-82
2022/12/05 03:03:21;;;;;;;52.42;22.90;;;5.00;1.00;;;;;;5101953;27;20469;-81
2022/12/05 03:06:02;;;;;;;55.17;23.13;;;5.00;1.00;;;;;;5095632;27;20084;-82
2022/12/05 03:08:35;;;;;;;49.75;22.17;;;5.10;1.00;;;;;;5106096;27;20146;-81
2022/12/05 03:11:02;;;;;;;52.10;22.58;;;5.00;1.00;;;;;;5091836;27;20680;-81
2022/12/05 03:13:40;;;;;;;48.83;22.40;;;5.10;1.00;;;;;;5090992;28;20036;-82
2022/12/05 03:16:15;;;;;;;45.13;22.48;;;5.10;1.00;;;;;;5112170;27;20043;-81
2022/12/05 03:18:50;;;;;;;54.78;21.92;;;5.00;1.00;;;;;;5119113;27;20821;-82
2022/12/05 03:21:34;;;;;;;47.97;21.05;;;5.10;1.00;;;;;;5095191;27;20057;-81
2022/12/05 03:24:07;;;;;;;42.95;20.48;;;5.00;1.00;;;;;;5095629;27;20081;-81
2022/12/05 03:26:59;;;;;;;50.90;21.70;;;5.10;1.00;;;;;;5095126;27;20488;-81
2022/12/05 03:29:50;;;;;;;46.05;21.70;;;5.00;1.00;;;;;;5098310;27;20131;-82
2022/12/05 03:32:27;;;;;;;45.38;21.17;;;5.10;1.00;;;;;;5095836;27;20043;-80
2022/12/05 03:35:04;;;;;;;49.25;21.38;;;5.00;1.00;;;;;;5111394;27;20054;-80
2022/12/05 03:37:33;;;;;;;43.38;20.58;;;5.10;1.00;;;;;;5084826;27;20054;-80
2022/12/05 03:40:33;;;;;;;45.22;20.70;;;5.10;2.20;;;;;;5099809;27;20100;-80
2022/12/05 03:43:01;;;;;;;38.67;18.67;;;5.10;6.60;;;;;;5094664;27;20400;-79
2022/12/05 03:45:56;;;;;;;41.22;20.25;;;5.10;7.80;;;;;;5095184;27;20068;-81
2022/12/05 03:48:27;;;;;;;36.75;19.77;;;5.10;14.40;;;;;;5112242;27;20396;-81
2022/12/05 03:50:54;;;;;;;38.30;19.55;;;5.10;16.20;;;;;;5107967;27;20043;-82
2022/12/05 03:53:30;;;;;;;35.42;19.27;;;5.10;19.90;;;;;;5116403;27;20035;-80
2022/12/05 03:56:07;;;;;;;38.00;19.02;;;5.10;22.10;;;;;;5104222;27;20039;-80
2022/12/05 03:58:46;;;;;;;36.97;17.08;;;5.10;27.80;;;;;;5111565;27;20083;-81
2022/12/05 04:01:15;;;;;;;35.10;18.05;;;5.10;30.40;;;;;;5112716;27;20403;-80
2022/12/05 04:03:59;;;;;;;44.05;18.80;;;5.10;29.50;;;;;;5094731;27;20428;-80
2022/12/05 04:06:32;;;;;;;32.90;17.30;;;5.10;31.80;;;;;;5111437;27;20046;-82
2022/12/05 04:09:10;;;;;;;35.65;18.35;;;5.10;33.60;;;;;;5111411;27;20503;-83
2022/12/05 04:11:40;;;;;;;38.33;18.98;;;5.10;34.60;;;;;;5100115;27;20602;-82
2022/12/05 04:14:11;;;;;;;36.22;18.80;;;5.00;36.10;;;;;;5112392;27;20046;-82
2022/12/05 04:17:03;;;;;;;32.75;17.70;;;5.10;35.90;;;;;;5094232;27;20491;-82
2022/12/05 04:22:34;;;;;;;34.33;17.70;;;5.10;44.90;;;;;;5108335;27;20051;-83
2022/12/05 04:28:01;;;;;;;28.85;15.93;;;5.10;47.50;;;;;;5105461;27;20557;-82
2022/12/05 04:30:51;;;;;;;30.88;15.30;;;5.10;51.50;;;;;;5095211;27;20042;-82
2022/12/05 04:33:40;;;;;;;29.92;14.82;;;5.10;54.90;;;;;;5098307;27;20189;-82
2022/12/05 04:36:15;;;;;;;31.75;15.25;;;5.10;58.80;;;;;;5108278;27;20138;-79
2022/12/05 04:38:40;;;;;;;24.20;13.43;;;5.10;58.20;;;;;;5085231;27;20185;-78
2022/12/05 04:41:27;;;;;;;22.52;13.77;;;5.20;58.30;;;;;;5095449;27;20154;-79
2022/12/05 04:43:58;;;;;;;25.95;13.57;;;5.10;59.90;;;;;;5088562;27;20107;-79
2022/12/05 04:46:24;;;;;;;25.17;14.02;;;5.10;64.10;;;;;;5095891;27;20396;-79
2022/12/05 04:48:55;;;;;;;24.25;13.23;;;5.10;62.50;;;;;;5082214;28;20079;-79
2022/12/05 04:51:25;;;;;;;24.17;11.95;;;5.10;63.40;;;;;;5106901;28;20031;-79
2022/12/05 04:53:55;;;;;;;23.10;12.00;;;5.20;66.60;;;;;;5090878;28;20047;-79
2022/12/05 04:56:26;;;;;;;21.60;10.95;;;5.10;69.40;;;;;;5088886;27;20138;-79
2022/12/05 04:58:52;;;;;;;21.23;10.98;;;5.10;68.80;;;;;;5100657;27;20046;-79
2022/12/05 05:01:32;;;;;;;20.15;10.40;;;5.20;68.20;;;;;;5111808;27;20061;-79
2022/12/05 05:04:12;;;;;;;21.65;10.85;;;5.10;71.10;;;;;;5110640;27;20042;-79
2022/12/05 05:06:39;;;;;;;19.70;10.70;;;5.10;73.20;;;;;;5087859;28;20039;-81
2022/12/05 05:09:05;;;;;;;18.77;10.52;;;5.10;74.70;;;;;;5105695;28;20048;-81
2022/12/05 05:11:33;;;;;;;17.85;10.15;;;5.10;77.00;;;;;;5071871;27;20046;-82
2022/12/05 05:14:00;;;;;;;19.75;11.52;;;5.10;81.20;;;;;;5107080;28;20042;-82
2022/12/05 05:16:32;;;;;;;17.55;9.73;;;5.20;84.20;;;;;;5113035;27;20504;-81
2022/12/05 05:18:58;;;;;;;19.80;10.82;;;5.10;89.40;;;;;;5092636;28;20111;-81
2022/12/05 05:21:51;;;;;;;14.98;9.32;;;5.20;89.70;;;;;;5112037;28;20047;-82
2022/12/05 05:24:17;;;;;;;15.88;8.93;;;5.10;92.20;;;;;;5102398;28;20138;-81
2022/12/05 05:26:45;;;;;;;19.23;10.20;;;5.10;92.20;;;;;;5090617;27;20073;-81
2022/12/05 05:29:11;;;;;;;16.80;9.63;;;5.10;92.80;;;;;;5113230;27;20117;-81
2022/12/05 05:31:38;;;;;;;15.35;9.38;;;5.10;93.50;;;;;;5093488;28;20402;-81
2022/12/05 05:34:05;;;;;;;18.95;10.02;;;5.10;94.70;;;;;;5093983;28;20043;-82
2022/12/05 05:36:31;;;;;;;17.27;9.45;;;5.10;94.40;;;;;;5094625;28;20054;-82
2022/12/05 05:38:59;;;;;;;19.38;10.02;;;5.20;97.30;;;;;;5090589;28;20043;-82
2022/12/05 05:41:26;;;;;;;19.75;10.48;;;5.20;98.20;;;;;;5110724;28;20063;-81
2022/12/05 05:43:52;;;;;;;16.65;10.18;;;5.20;98.90;;;;;;5107398;27;20039;-82
2022/12/05 05:46:20;;;;;;;17.63;10.30;;;5.10;99.90;;;;;;5059752;28;20462;-81
2022/12/05 05:48:46;;;;;;;17.50;10.18;;;5.20;99.90;;;;;;5095378;27;20539;-82
2022/12/05 05:51:15;;;;;;;18.52;9.48;;;5.20;99.90;;;;;;5093415;28;20078;-82
2022/12/05 05:53:45;;;;;;;19.33;10.13;;;5.10;99.90;;;;;;5114177;28;20656;-82
2022/12/05 05:56:13;;;;;;;19.60;9.95;;;5.20;99.90;;;;;;5116572;28;20488;-81
2022/12/05 05:58:39;;;;;;;15.70;9.70;;;5.10;99.90;;;;;;5093761;27;20051;-81
2022/12/05 06:01:11;;;;;;;17.08;10.02;;;5.20;99.90;;;;;;5097100;27;20035;-81
2022/12/05 06:03:37;;;;;;;16.90;9.98;;;5.20;99.90;;;;;;5093927;27;20522;-81
2022/12/05 06:06:06;;;;;;;18.02;9.50;;;5.20;99.90;;;;;;5098015;27;20074;-82
2022/12/05 06:08:33;;;;;;;16.45;9.60;;;5.20;99.90;;;;;;5123021;27;20047;-83
2022/12/05 06:11:03;;;;;;;19.00;9.93;;;5.20;99.90;;;;;;5094011;27;20076;-82
2022/12/05 06:13:28;;;;;;;18.40;9.77;;;5.20;99.90;;;;;;5114404;27;20065;-82
2022/12/05 06:15:54;;;;;;;16.25;9.07;;;5.20;99.90;;;;;;5077593;27;20039;-80
2022/12/05 06:18:20;;;;;;;20.40;9.15;;;5.20;99.90;;;;;;5114708;27;20046;-82
2022/12/05 06:20:53;;;;;;;17.92;9.63;;;5.20;99.90;;;;;;5123779;27;20046;-82
2022/12/05 06:23:19;;;;;;;18.25;10.05;;;5.20;99.90;;;;;;5115023;27;20039;-83
2022/12/05 06:25:49;;;;;;;18.05;9.95;;;5.20;99.90;;;;;;5096876;27;20043;-82
2022/12/05 06:28:16;;;;;;;19.48;10.30;;;5.20;99.90;;;;;;5096181;27;20485;-82
2022/12/05 06:30:41;;;;;;;30.48;18.08;;;5.20;99.90;;;;;;5116784;27;20043;-82
2022/12/05 06:33:08;;;;;;;17.98;9.90;;;5.20;99.90;;;;;;5063101;27;20035;-81
2022/12/05 06:35:34;;;;;;;19.65;9.88;;;5.20;99.90;;;;;;5098106;27;20049;-80
2022/12/05 06:37:59;;;;;;;18.25;9.90;;;5.20;99.90;;;;;;5090194;28;20132;-81
2022/12/05 06:40:25;;;;;;;15.73;9.40;;;5.20;99.90;;;;;;5087816;28;20036;-84
2022/12/05 06:42:51;;;;;;;19.23;9.65;;;5.20;99.90;;;;;;5056174;28;20044;-83
2022/12/05 06:45:17;;;;;;;19.50;9.93;;;5.20;99.90;;;;;;5089799;28;20146;-82
2022/12/05 06:47:42;;;;;;;18.42;9.85;;;5.20;99.90;;;;;;5107362;28;20066;-80
2022/12/05 06:50:09;;;;;;;18.95;9.45;;;5.20;99.90;;;;;;5071213;28;20071;-80
2022/12/05 06:52:34;;;;;;;20.30;9.95;;;5.20;99.90;;;;;;5099298;28;20072;-82
2022/12/05 06:55:00;;;;;;;19.08;10.32;;;5.20;99.90;;;;;;5091592;28;20646;-82
2022/12/05 06:57:27;;;;;;;19.05;10.23;;;5.20;99.90;;;;;;5107358;28;20036;-81
2022/12/05 07:02:40;;;;;;;17.08;10.32;;;5.20;99.90;;;;;;5063148;28;20485;-80
2022/12/05 07:05:09;;;;;;;17.15;9.68;;;5.20;99.90;;;;;;5104656;28;20047;-77
2022/12/05 07:07:36;;;;;;;19.77;10.00;;;5.20;99.90;;;;;;5101373;28;20040;-79
2022/12/05 07:10:03;;;;;;;24.65;10.90;;;5.20;99.90;;;;;;5084884;28;20829;-79
2022/12/05 07:12:28;;;;;;;20.20;11.40;;;5.20;99.90;;;;;;5105948;28;20040;-79
2022/12/05 07:14:54;;;;;;;19.95;9.93;;;5.20;99.90;;;;;;5081236;28;20117;-81
2022/12/05 07:17:20;;;;;;;17.10;9.80;;;5.20;99.90;;;;;;5108771;28;20145;-79
2022/12/05 07:19:48;;;;;;;20.13;10.05;;;5.20;99.90;;;;;;5090610;28;20040;-79
2022/12/05 07:22:14;;;;;;;18.85;10.60;;;5.10;99.90;;;;;;5085246;28;20449;-80
2022/12/05 07:24:39;;;;;;;20.40;10.93;;;5.20;99.90;;;;;;5104147;28;20481;-80
2022/12/05 07:27:06;;;;;;;22.02;11.10;;;5.30;99.90;;;;;;5084047;28;20044;-80
2022/12/05 07:29:32;;;;;;;23.15;10.75;;;5.20;99.90;;;;;;5066157;28;20490;-81
2022/12/05 07:31:57;;;;;;;20.98;10.48;;;5.20;99.90;;;;;;5087158;28;20055;-81
2022/12/05 07:34:23;;;;;;;23.25;11.52;;;5.20;99.90;;;;;;5088644;28;20044;-81
2022/12/05 07:36:49;;;;;;;22.08;11.20;;;5.20;99.90;;;;;;5080696;28;20079;-80
2022/12/05 07:39:15;;;;;;;21.45;10.68;;;5.20;99.90;;;;;;5092159;28;20051;-80
2022/12/05 07:41:41;;;;;;;23.77;11.45;;;5.20;99.90;;;;;;5075373;28;20039;-80
2022/12/05 07:44:09;;;;;;;25.27;11.73;;;5.20;99.90;;;;;;5106990;28;20571;-80
2022/12/05 07:46:35;;;;;;;25.15;12.27;;;5.20;99.90;;;;;;5075491;28;20055;-80
2022/12/05 07:49:00;;;;;;;23.95;11.52;;;5.20;99.90;;;;;;5109274;27;20043;-82
2022/12/05 07:51:26;;;;;;;26.20;12.10;;;5.20;99.90;;;;;;5073059;28;20552;-80
2022/12/05 07:53:51;;;;;;;26.45;11.90;;;5.30;99.90;;;;;;5098204;28;20501;-81
2022/12/05 07:56:25;;;;;;;24.38;11.48;;;5.20;99.90;;;;;;5108579;28;20054;-80
2022/12/05 07:58:51;;;;;;;22.50;10.85;;;5.20;99.90;;;;;;5106825;28;20641;-80
2022/12/05 08:01:20;;;;;;;24.08;11.63;;;5.20;99.90;;;;;;5073888;28;20054;-80
2022/12/05 08:03:46;;;;;;;27.10;11.48;;;5.20;99.90;;;;;;5108256;28;20462;-81
2022/12/05 08:06:17;;;;;;;25.20;11.55;;;5.20;99.90;;;;;;5090742;28;20047;-80
2022/12/05 08:08:44;;;;;;;21.02;10.77;;;5.20;99.90;;;;;;5088018;28;20070;-80
2022/12/05 08:11:12;;;;;;;29.75;12.18;;;5.20;99.90;;;;;;5081198;28;20044;-80
2022/12/05 08:13:38;;;;;;;27.80;11.55;;;5.20;99.90;;;;;;5108141;28;20047;-80
2022/12/05 08:16:06;;;;;;;27.48;12.00;;;5.20;99.90;;;;;;5083616;28;20051;-82
2022/12/05 08:18:32;;;;;;;23.25;10.88;;;5.20;99.90;;;;;;5107483;28;20126;-81
2022/12/05 08:21:07;;;;;;;25.67;11.13;;;5.20;99.90;;;;;;5080508;28;20396;-81
2022/12/05 08:23:33;;;;;;;24.67;11.35;;;5.20;99.90;;;;;;5080824;28;20438;-81
2022/12/05 08:26:04;;;;;;;25.30;11.60;;;5.20;99.90;;;;;;5086718;28;20047;-80
2022/12/05 08:28:30;;;;;;;25.17;11.57;;;5.20;99.90;;;;;;5106348;28;20086;-80
2022/12/05 08:31:05;;;;;;;21.98;10.55;;;5.20;99.90;;;;;;5090579;28;20454;-80
2022/12/05 08:33:31;;;;;;;23.67;10.80;;;5.20;99.90;;;;;;5084929;28;20040;-81
2022/12/05 08:36:06;;;;;;;25.60;10.98;;;5.30;99.90;;;;;;5105121;28;20047;-80
2022/12/05 08:38:33;;;;;;;26.02;10.63;;;5.20;99.90;;;;;;5088516;28;20056;-80
2022/12/05 08:41:03;;;;;;;24.98;12.05;;;5.20;99.90;;;;;;5082839;28;20082;-80
2022/12/05 08:43:30;;;;;;;24.33;11.15;;;5.20;99.90;;;;;;5072207;28;20118;-80
2022/12/05 08:45:56;;;;;;;26.98;10.90;;;5.20;99.90;;;;;;5104623;28;20052;-81
2022/12/05 08:48:22;;;;;;;25.40;11.57;;;5.20;99.90;;;;;;5092988;27;20582;-81
2022/12/05 08:50:48;;;;;;;20.60;10.77;;;5.20;99.90;;;;;;5095949;28;21446;-81
2022/12/05 08:53:15;;;;;;;23.10;11.43;;;5.20;99.90;;;;;;5070684;27;20043;-81
2022/12/05 08:55:41;;;;;;;17.77;10.23;;;5.20;99.90;;;;;;5101868;27;20047;-82
2022/12/05 08:58:07;;;;;;;19.77;9.75;;;5.20;99.90;;;;;;5107003;28;20047;-82
2022/12/05 09:00:33;;;;;;;20.15;9.77;;;5.20;99.90;;;;;;5107628;28;20105;-81
2022/12/05 09:02:58;;;;;;;19.63;10.25;;;5.10;99.90;;;;;;5074165;28;20051;-81
2022/12/05 09:05:24;;;;;;;21.35;10.35;;;5.10;99.90;;;;;;5109257;27;20081;-81
2022/12/05 09:07:50;;;;;;;18.73;9.50;;;5.10;99.90;;;;;;5081009;28;20139;-81
2022/12/05 09:10:16;;;;;;;19.42;9.52;;;5.10;99.90;;;;;;5067748;28;20082;-81
2022/12/05 09:12:42;;;;;;;19.38;10.35;;;5.20;99.90;;;;;;5074359;28;20055;-81
2022/12/05 09:15:09;;;;;;;18.00;9.85;;;5.20;99.90;;;;;;5087814;28;20055;-83
2022/12/05 09:17:38;;;;;;;16.52;9.25;;;5.10;99.90;;;;;;5085109;28;20063;-80
2022/12/05 09:20:12;;;;;;;20.95;9.65;;;5.10;99.90;;;;;;5097649;28;20048;-80
2022/12/05 09:22:39;;;;;;;18.55;9.55;;;5.20;99.90;;;;;;5064115;28;20452;-79
2022/12/05 09:25:05;;;;;;;16.70;9.05;;;5.10;99.90;;;;;;5066423;28;20058;-81
2022/12/05 09:27:33;;;;;;;18.75;9.27;;;5.10;99.90;;;;;;5072048;28;20040;-80
2022/12/05 09:29:58;;;;;;;17.55;9.15;;;5.10;99.90;;;;;;5107913;28;20092;-81
2022/12/05 09:32:24;;;;;;;17.30;9.20;;;5.10;99.90;;;;;;5102900;28;20047;-81
2022/12/05 09:34:50;;;;;;;16.90;9.65;;;5.20;99.90;;;;;;5095342;28;20396;-80
2022/12/05 09:37:21;;;;;;;19.02;9.55;;;5.10;99.90;;;;;;5091531;27;20465;-81
2022/12/05 09:39:48;;;;;;;19.10;9.77;;;5.10;99.90;;;;;;5114113;27;20059;-80
2022/12/05 09:42:23;;;;;;;17.23;9.23;;;5.10;99.90;;;;;;5097636;27;20051;-81
2022/12/05 09:45:10;;;;;;;19.65;9.35;;;5.10;99.90;;;;;;5090966;27;20047;-80
2022/12/05 09:47:57;;;;;;;19.83;9.30;;;5.10;99.90;;;;;;5112883;27;20050;-81
2022/12/05 09:50:54;;;;;;;21.15;9.68;;;5.10;99.90;;;;;;5113080;27;20043;-83
2022/12/05 09:53:26;;;;;;;20.48;9.32;;;5.10;99.90;;;;;;5123372;27;20074;-80
2022/12/05 09:56:03;;;;;;;20.10;9.77;;;5.10;99.90;;;;;;5097211;27;20151;-80
2022/12/05 09:58:38;;;;;;;14.82;8.75;;;5.10;99.90;;;;;;5093067;27;20047;-80
2022/12/05 10:01:28;;;;;;;20.45;9.02;;;5.10;99.90;;;;;;5111715;27;20075;-80
2022/12/05 10:04:13;;;;;;;19.02;9.65;;;5.20;99.90;;;;;;5085231;27;20492;-80
2022/12/05 10:07:02;;;;;;;22.23;10.40;;;5.10;99.90;;;;;;5097618;27;20047;-80
2022/12/05 10:09:37;;;;;;;19.42;9.90;;;5.10;99.90;;;;;;5096758;27;20465;-79
2022/12/05 10:12:34;;;;;;;22.10;10.80;;;5.20;99.90;;;;;;5113212;27;20050;-81
2022/12/05 10:15:16;;;;;;;18.52;9.95;;;5.20;99.90;;;;;;5112245;27;20088;-81
2022/12/05 10:17:49;;;;;;;19.85;9.63;;;5.20;99.90;;;;;;5108342;27;20115;-81
2022/12/05 10:20:41;;;;;;;20.00;9.55;;;5.20;99.90;;;;;;5085236;27;20043;-81
2022/12/05 10:23:28;;;;;;;22.00;10.88;;;5.20;99.90;;;;;;5053301;27;20105;-82
2022/12/05 10:26:01;;;;;;;24.02;10.85;;;5.20;99.90;;;;;;5110466;27;20264;-81
2022/12/05 10:28:40;;;;;;;17.27;9.63;;;5.20;99.90;;;;;;5095945;27;20054;-81
2022/12/05 10:31:15;;;;;;;19.33;10.85;;;5.20;99.90;;;;;;5110535;27;20035;-81
2022/12/05 10:33:47;;;;;;;22.60;10.93;;;5.20;99.90;;;;;;5096498;28;20115;-80
2022/12/05 10:36:17;;;;;;;26.20;10.57;;;5.20;99.90;;;;;;5091628;27;20104;-81
2022/12/05 10:38:44;;;;;;;21.63;11.15;;;5.10;99.90;;;;;;5090746;27;20051;-82
2022/12/05 10:41:14;;;;;;;19.88;10.75;;;5.20;99.90;;;;;;5113088;27;20054;-81
2022/12/05 10:43:44;;;;;;;18.75;9.65;;;5.20;99.90;;;;;;5078581;27;20130;-80
2022/12/05 10:46:14;;;;;;;18.77;10.82;;;5.20;99.90;;;;;;5095387;27;20046;-81
2022/12/05 10:48:43;;;;;;;21.70;10.70;;;5.20;99.90;;;;;;5094183;27;20047;-81
2022/12/05 10:51:19;;;;;;;19.98;10.23;;;5.20;99.90;;;;;;5111802;27;20134;-81
2022/12/05 10:53:51;;;;;;;24.27;10.73;;;5.20;99.90;;;;;;5094716;27;20051;-81
2022/12/05 10:56:40;;;;;;;16.90;10.13;;;5.20;99.90;;;;;;5085018;27;20146;-81
2022/12/05 10:59:15;;;;;;;18.38;9.70;;;5.20;99.90;;;;;;5110790;27;20043;-80
2022/12/05 11:01:57;;;;;;;19.98;9.50;;;5.20;99.90;;;;;;5089201;27;20103;-81
2022/12/05 11:04:42;;;;;;;17.95;8.82;;;5.20;99.90;;;;;;5109929;27;20078;-82
2022/12/05 11:07:24;;;;;;;18.50;9.38;;;5.20;99.90;;;;;;5094720;27;20051;-81
2022/12/05 11:09:52;;;;;;;16.23;9.15;;;5.20;99.90;;;;;;5094376;27;20059;-82
2022/12/05 11:12:21;;;;;;;19.40;9.52;;;5.20;99.90;;;;;;5141624;27;20051;-81
2022/12/05 11:15:05;;;;;;;17.20;9.05;;;5.20;99.90;;;;;;5112947;27;20081;-81
2022/12/05 11:17:40;;;;;;;15.23;8.43;;;5.20;99.90;;;;;;5112511;27;20035;-81
2022/12/05 11:20:29;;;;;;;18.00;9.02;;;5.20;99.90;;;;;;5096255;27;20400;-81
2022/12/05 11:22:58;;;;;;;17.70;9.48;;;5.20;99.90;;;;;;5061315;27;20508;-82
2022/12/05 11:25:32;;;;;;;15.88;8.73;;;5.30;99.90;;;;;;5113050;27;20507;-81
2022/12/05 11:28:19;;;;;;;16.30;8.32;;;5.20;99.90;;;;;;5106470;27;20062;-81
2022/12/05 11:31:14;;;;;;;16.35;8.65;;;5.30;99.90;;;;;;5111949;27;20854;-81
2022/12/05 11:33:43;;;;;;;17.95;8.38;;;5.20;99.90;;;;;;5074489;27;20551;-80
2022/12/05 11:36:14;;;;;;;20.30;10.15;;;5.20;99.90;;;;;;5112459;27;20179;-75
2022/12/05 11:38:43;;;;;;;17.70;9.13;;;5.20;99.90;;;;;;5088653;28;20056;-80
2022/12/05 11:41:46;;;;;;;21.92;13.35;;;5.30;99.90;;;;;;5088833;28;20126;-78
2022/12/05 11:44:52;;;;;;;20.02;10.05;;;5.30;99.90;;;;;;5057895;28;20074;-79
2022/12/05 11:47:17;;;;;;;20.58;10.23;;;5.30;99.90;;;;;;5029350;28;20057;-81
2022/12/05 11:50:13;;;;;;;18.50;9.30;;;5.40;99.90;;;;;;5086268;28;20088;-80
2022/12/05 11:52:51;;;;;;;17.60;9.88;;;5.30;99.90;;;;;;5107400;28;20051;-79
2022/12/05 11:55:29;;;;;;;23.60;10.15;;;5.30;99.90;;;;;;5107559;28;20039;-82
2022/12/05 11:58:09;;;;;;;17.70;9.02;;;5.30;99.90;;;;;;5108106;28;20063;-79
2022/12/05 12:00:48;;;;;;;15.48;8.48;;;5.30;99.90;;;;;;5086527;28;20040;-79
2022/12/05 12:03:51;;;;;;;15.90;8.90;;;5.30;99.90;;;;;;5079226;28;20093;-82
2022/12/05 12:06:45;;;;;;;16.00;8.57;;;5.40;99.90;;;;;;5107856;28;20051;-82
2022/12/05 12:09:29;;;;;;;17.60;9.10;;;5.30;99.90;;;;;;5105422;28;20515;-82
2022/12/05 12:12:11;;;;;;;19.27;8.18;;;5.30;99.90;;;;;;5089239;28;20048;-84
2022/12/05 12:14:55;;;;;;;16.17;8.30;;;5.40;99.90;;;;;;5084836;28;20039;-81
2022/12/05 12:17:42;;;;;;;16.98;8.50;;;5.40;99.90;;;;;;5097740;28;20097;-81
2022/12/05 12:20:33;;;;;;;12.68;7.32;;;5.40;99.90;;;;;;5091452;28;20055;-82
2022/12/05 12:23:44;;;;;;;17.92;7.68;;;5.40;99.90;;;;;;5101421;28;20104;-82
2022/12/05 12:26:14;;;;;;;15.70;8.20;;;5.40;99.90;;;;;;5065887;28;20052;-82
2022/12/05 12:29:07;;;;;;;16.13;7.97;;;5.40;99.90;;;;;;5088361;28;20040;-82
2022/12/05 12:32:00;;;;;;;15.95;8.02;;;5.40;99.90;;;;;;5082001;28;20136;-82
2022/12/05 12:35:09;;;;;;;16.33;7.68;;;5.40;99.90;;;;;;5091549;28;20476;-81
2022/12/05 12:37:46;;;;;;;17.92;7.15;;;5.40;99.90;;;;;;5071227;28;20447;-81
2022/12/05 12:40:31;;;;;;;12.80;7.10;;;5.40;99.90;;;;;;5086895;28;20134;-81
2022/12/05 12:43:22;;;;;;;17.35;9.13;;;5.40;99.90;;;;;;5089848;28;20123;-82
2022/12/05 12:45:57;;;;;;;17.67;8.35;;;5.40;99.90;;;;;;5100348;28;20051;-81
2022/12/05 12:48:51;;;;;;;15.45;9.52;;;5.40;99.90;;;;;;5079100;28;20378;-81
2022/12/05 12:51:17;;;;;;;17.77;9.38;;;5.40;99.90;;;;;;5083243;28;20055;-82
2022/12/05 12:54:10;;;;;;;15.63;7.78;;;5.40;99.90;;;;;;5052692;28;20065;-82
2022/12/05 12:57:19;;;;;;;13.63;8.20;;;5.40;99.90;;;;;;5090138;28;20040;-82
2022/12/05 13:00:11;;;;;;;14.02;7.18;;;5.40;99.90;;;;;;5082137;28;20051;-81
2022/12/05 13:02:37;;;;;;;14.23;7.32;;;5.40;99.90;;;;;;5088037;28;20044;-81
2022/12/05 13:05:23;;;;;;;17.45;8.85;;;5.40;99.90;;;;;;5099968;28;20051;-81
2022/12/05 13:07:55;;;;;;;;;;;5.40;99.90;;;;;;5099944;28;20078;-81
2022/12/05 13:10:58;;;;;;;15.88;7.63;;;5.40;99.90;;;;;;5088497;28;20284;-83
2022/12/05 13:13:33;;;;;;;13.10;7.00;;;5.30;99.90;;;;;;5012487;28;20049;-82
2022/12/05 13:16:02;;;;;;;14.60;7.07;;;5.30;99.90;;;;;;5096698;28;20064;-82
2022/12/05 13:18:28;;;;;;;15.55;7.07;;;5.30;99.90;;;;;;5108010;28;20055;-82
2022/12/05 13:20:57;;;;;;;14.63;6.50;;;5.30;99.90;;;;;;5087824;28;20056;-82
2022/12/05 13:23:26;;;;;;;11.50;6.10;;;5.40;99.90;;;;;;5105301;28;20564;-81